sensor_id;sensor_type;location;lat;lon;timestamp;pressure;altitude;pressure_sealevel;temperature;humidity
12624;BME280;6377;42.836;23.998;2023-04-05T08:59:29;95304.44;;;6.66;100.00
12624;BME280;6377;42.836;23.998;2023-04-05T09:02:01;95307.53;;;6.69;100.00
12624;BME280;6377;42.836;23.998;2023-04-05T09:04:31;95300.63;;;6.44;100.00
12624;BME280;6377;42.836;23.998;2023-04-05T09:07:05;95274.00;;;6.31;100.00
12624;BME280;6377;42.836;23.998;2023-04-05T09:09:35;95306.69;;;6.53;100.00
12624;BME280;6377;42.836;23.998;2023-04-05T09:12:03;95306.56;;;6.62;100.00
12624;BME280;6377;42.836;23.998;2023-04-05T09:14:34;95304.09;;;6.69;100.00
12624;BME280;6377;42.836;23.998;2023-04-05T09:17:02;95261.72;;;6.48;100.00
12624;BME280;6377;42.836;23.998;2023-04-05T09:19:29;95299.66;;;6.78;100.00
12624;BME280;6377;42.836;23.998;2023-04-05T09:21:57;95130.91;;;5.37;100.00
12624;BME280;6377;42.836;23.998;2023-04-05T09:24:32;95123.69;;;5.31;100.00
12624;BME280;6377;42.836;23.998;2023-04-05T09:27:05;95336.59;;;6.84;100.00
12624;BME280;6377;42.836;23.998;2023-04-05T09:29:34;95336.94;;;6.73;100.00
12624;BME280;6377;42.836;23.998;2023-04-05T09:32:03;95165.09;;;5.77;100.00
12624;BME280;6377;42.836;23.998;2023-04-05T09:34:32;95133.56;;;5.61;100.00
12624;BME280;6377;42.836;23.998;2023-04-05T09:37:01;95321.16;;;7.05;100.00
12624;BME280;6377;42.836;23.998;2023-04-05T09:39:30;95266.50;;;6.60;100.00
12624;BME280;6377;42.836;23.998;2023-04-05T09:42:08;95129.97;;;5.54;100.00
12624;BME280;6377;42.836;23.998;2023-04-05T09:53:09;95109.75;;;5.30;100.00
12624;BME280;6377;42.836;23.998;2023-04-05T10:05:55;95110.16;;;5.68;100.00
12624;BME280;6377;42.836;23.998;2023-04-05T10:08:27;95167.31;;;6.06;100.00
12624;BME280;6377;42.836;23.998;2023-04-05T10:10:55;95318.69;;;7.20;100.00
12624;BME280;6377;42.836;23.998;2023-04-05T10:29:01;95089.03;;;5.11;100.00
12624;BME280;6377;42.836;23.998;2023-04-05T10:31:39;95131.97;;;5.60;100.00
12624;BME280;6377;42.836;23.998;2023-04-05T10:34:18;95167.13;;;5.91;100.00
12624;BME280;6377;42.836;23.998;2023-04-05T10:36:53;95092.25;;;5.55;100.00
12624;BME280;6377;42.836;23.998;2023-04-05T10:39:26;95300.63;;;7.09;100.00
12624;BME280;6377;42.836;23.998;2023-04-05T10:41:59;95273.03;;;6.89;100.00
12624;BME280;6377;42.836;23.998;2023-04-05T10:44:31;95269.09;;;6.93;100.00
12624;BME280;6377;42.836;23.998;2023-04-05T10:47:00;95279.13;;;6.97;100.00
12624;BME280;6377;42.836;23.998;2023-04-05T10:49:32;95303.09;;;7.18;100.00
12624;BME280;6377;42.836;23.998;2023-04-05T10:52:02;95284.38;;;6.97;100.00
12624;BME280;6377;42.836;23.998;2023-04-05T10:54:32;95262.03;;;6.77;100.00
12624;BME280;6377;42.836;23.998;2023-04-05T10:57:02;95258.63;;;6.60;100.00
12624;BME280;6377;42.836;23.998;2023-04-05T10:59:33;95161.22;;;6.05;100.00
12624;BME280;6377;42.836;23.998;2023-04-05T11:02:02;95308.19;;;6.88;100.00
12624;BME280;6377;42.836;23.998;2023-04-05T11:04:32;95314.09;;;6.73;100.00
12624;BME280;6377;42.836;23.998;2023-04-05T11:07:13;95188.41;;;5.72;100.00
12624;BME280;6377;42.836;23.998;2023-04-05T11:09:50;95188.53;;;5.62;100.00
12624;BME280;6377;42.836;23.998;2023-04-05T11:12:18;95164.31;;;5.35;100.00
12624;BME280;6377;42.836;23.998;2023-04-05T11:14:46;95157.28;;;5.35;100.00
12624;BME280;6377;42.836;23.998;2023-04-05T11:17:24;95304.84;;;6.37;100.00
12624;BME280;6377;42.836;23.998;2023-04-05T11:20:01;95204.50;;;5.43;100.00
12624;BME280;6377;42.836;23.998;2023-04-05T11:22:30;95190.81;;;5.57;100.00
12624;BME280;6377;42.836;23.998;2023-04-05T11:24:58;95165.66;;;5.39;100.00
12624;BME280;6377;42.836;23.998;2023-04-05T11:27:31;95328.69;;;6.44;100.00
12624;BME280;6377;42.836;23.998;2023-04-05T11:30:01;95295.19;;;6.38;100.00
12624;BME280;6377;42.836;23.998;2023-04-05T11:32:38;95308.00;;;6.41;100.00
12624;BME280;6377;42.836;23.998;2023-04-05T11:35:14;95194.09;;;5.68;100.00
12624;BME280;6377;42.836;23.998;2023-04-05T11:38:05;95317.00;;;6.30;100.00
12624;BME280;6377;42.836;23.998;2023-04-05T11:40:35;95310.56;;;6.16;100.00
12624;BME280;6377;42.836;23.998;2023-04-05T11:43:06;95305.94;;;6.02;100.00
12624;BME280;6377;42.836;23.998;2023-04-05T11:45:37;95319.09;;;6.10;100.00
12624;BME280;6377;42.836;23.998;2023-04-05T11:48:06;95245.94;;;5.74;100.00
12624;BME280;6377;42.836;23.998;2023-04-05T11:50:35;95340.78;;;6.20;100.00
12624;BME280;6377;42.836;23.998;2023-04-05T11:53:17;95309.78;;;6.24;100.00
12624;BME280;6377;42.836;23.998;2023-04-05T11:55:50;95206.06;;;5.70;100.00
12624;BME280;6377;42.836;23.998;2023-04-05T11:58:21;95203.09;;;5.49;100.00
12624;BME280;6377;42.836;23.998;2023-04-05T12:01:06;95320.28;;;6.40;100.00
12624;BME280;6377;42.836;23.998;2023-04-05T12:03:36;95237.53;;;6.04;100.00
12624;BME280;6377;42.836;23.998;2023-04-05T12:06:11;95261.81;;;6.06;100.00
12624;BME280;6377;42.836;23.998;2023-04-05T12:08:53;95264.28;;;6.15;100.00
12624;BME280;6377;42.836;23.998;2023-04-05T12:11:23;95248.22;;;6.18;100.00
12624;BME280;6377;42.836;23.998;2023-04-05T12:13:56;95290.44;;;6.41;100.00
12624;BME280;6377;42.836;23.998;2023-04-05T12:16:33;95336.75;;;6.50;100.00
12624;BME280;6377;42.836;23.998;2023-04-05T12:19:00;95325.22;;;6.43;100.00
12624;BME280;6377;42.836;23.998;2023-04-05T12:21:28;95263.06;;;5.86;100.00
12624;BME280;6377;42.836;23.998;2023-04-05T12:23:57;95211.41;;;5.44;100.00
12624;BME280;6377;42.836;23.998;2023-04-05T12:26:27;95310.66;;;5.99;100.00
12624;BME280;6377;42.836;23.998;2023-04-05T12:29:04;95260.31;;;5.61;100.00
12624;BME280;6377;42.836;23.998;2023-04-05T12:31:37;95251.91;;;5.50;100.00
12624;BME280;6377;42.836;23.998;2023-04-05T12:34:04;95320.81;;;5.94;100.00
12624;BME280;6377;42.836;23.998;2023-04-05T12:36:32;95317.75;;;6.06;100.00
12624;BME280;6377;42.836;23.998;2023-04-05T12:39:05;95343.19;;;6.06;100.00
12624;BME280;6377;42.836;23.998;2023-04-05T12:41:33;95166.50;;;5.05;100.00
12624;BME280;6377;42.836;23.998;2023-04-05T12:44:26;95115.88;;;4.63;100.00
12624;BME280;6377;42.836;23.998;2023-04-05T12:46:59;95258.41;;;5.80;100.00
12624;BME280;6377;42.836;23.998;2023-04-05T12:49:36;95304.03;;;6.29;100.00
12624;BME280;6377;42.836;23.998;2023-04-05T12:52:21;95259.03;;;6.07;100.00
12624;BME280;6377;42.836;23.998;2023-04-05T12:54:53;95142.16;;;5.21;100.00
12624;BME280;6377;42.836;23.998;2023-04-05T12:57:29;95228.78;;;5.87;100.00
12624;BME280;6377;42.836;23.998;2023-04-05T12:59:57;95152.03;;;5.27;100.00
12624;BME280;6377;42.836;23.998;2023-04-05T13:02:24;95289.09;;;6.21;100.00
12624;BME280;6377;42.836;23.998;2023-04-05T13:04:51;95183.78;;;5.66;100.00
12624;BME280;6377;42.836;23.998;2023-04-05T13:07:18;95353.16;;;6.52;100.00
12624;BME280;6377;42.836;23.998;2023-04-05T13:09:47;95216.47;;;5.88;100.00
12624;BME280;6377;42.836;23.998;2023-04-05T13:12:15;95281.72;;;6.33;100.00
12624;BME280;6377;42.836;23.998;2023-04-05T13:14:42;95203.38;;;5.88;100.00
12624;BME280;6377;42.836;23.998;2023-04-05T13:17:09;95278.72;;;6.11;100.00
12624;BME280;6377;42.836;23.998;2023-04-05T13:19:36;95289.84;;;5.97;100.00
12624;BME280;6377;42.836;23.998;2023-04-05T13:22:04;95212.13;;;5.62;100.00
12624;BME280;6377;42.836;23.998;2023-04-05T13:24:31;95320.25;;;6.16;100.00
12624;BME280;6377;42.836;23.998;2023-04-05T13:27:00;95145.94;;;5.27;100.00
12624;BME280;6377;42.836;23.998;2023-04-05T13:29:27;95251.59;;;5.87;100.00
12624;BME280;6377;42.836;23.998;2023-04-05T13:31:54;95345.59;;;6.33;100.00
12624;BME280;6377;42.836;23.998;2023-04-05T13:34:21;95317.66;;;6.24;100.00
12624;BME280;6377;42.836;23.998;2023-04-05T13:36:48;95265.66;;;5.78;100.00
12624;BME280;6377;42.836;23.998;2023-04-05T13:39:15;95316.50;;;6.18;100.00
12624;BME280;6377;42.836;23.998;2023-04-05T13:41:42;95210.78;;;5.50;100.00
12624;BME280;6377;42.836;23.998;2023-04-05T13:44:11;95325.19;;;6.19;100.00
12624;BME280;6377;42.836;23.998;2023-04-05T13:46:38;95278.91;;;6.18;100.00
12624;BME280;6377;42.836;23.998;2023-04-05T13:49:05;95185.09;;;5.70;100.00
12624;BME280;6377;42.836;23.998;2023-04-05T13:51:33;95322.28;;;6.46;100.00
12624;BME280;6377;42.836;23.998;2023-04-05T13:54:05;95274.81;;;5.82;100.00
12624;BME280;6377;42.836;23.998;2023-04-05T13:56:35;95325.31;;;6.01;100.00
12624;BME280;6377;42.836;23.998;2023-04-05T13:59:03;95272.06;;;5.49;100.00
12624;BME280;6377;42.836;23.998;2023-04-05T14:01:32;95140.09;;;4.65;100.00
12624;BME280;6377;42.836;23.998;2023-04-05T14:04:00;95290.97;;;5.61;100.00
12624;BME280;6377;42.836;23.998;2023-04-05T14:06:27;95270.59;;;5.47;100.00
12624;BME280;6377;42.836;23.998;2023-04-05T14:08:54;95321.13;;;5.91;100.00
12624;BME280;6377;42.836;23.998;2023-04-05T14:11:22;95231.03;;;5.40;100.00
12624;BME280;6377;42.836;23.998;2023-04-05T14:13:49;95325.94;;;5.95;100.00
12624;BME280;6377;42.836;23.998;2023-04-05T14:16:17;95274.56;;;5.59;100.00
12624;BME280;6377;42.836;23.998;2023-04-05T14:18:45;95165.44;;;4.90;100.00
12624;BME280;6377;42.836;23.998;2023-04-05T14:21:12;95327.06;;;5.93;100.00
12624;BME280;6377;42.836;23.998;2023-04-05T14:23:40;95215.41;;;5.23;100.00
12624;BME280;6377;42.836;23.998;2023-04-05T14:26:07;95269.19;;;5.60;100.00
12624;BME280;6377;42.836;23.998;2023-04-05T14:28:34;95287.59;;;5.77;100.00
12624;BME280;6377;42.836;23.998;2023-04-05T14:31:02;95214.53;;;5.14;100.00
12624;BME280;6377;42.836;23.998;2023-04-05T14:33:29;95333.72;;;6.13;100.00
12624;BME280;6377;42.836;23.998;2023-04-05T14:35:58;95245.44;;;5.70;100.00
12624;BME280;6377;42.836;23.998;2023-04-05T14:38:25;95341.78;;;6.28;100.00
12624;BME280;6377;42.836;23.998;2023-04-05T14:40:52;95294.06;;;5.90;100.00
12624;BME280;6377;42.836;23.998;2023-04-05T14:43:19;95281.56;;;5.84;100.00
12624;BME280;6377;42.836;23.998;2023-04-05T14:45:46;95289.66;;;5.91;100.00
12624;BME280;6377;42.836;23.998;2023-04-05T14:48:14;95284.13;;;5.68;100.00
12624;BME280;6377;42.836;23.998;2023-04-05T14:50:41;95296.94;;;5.71;100.00
12624;BME280;6377;42.836;23.998;2023-04-05T14:53:13;95294.22;;;5.55;100.00
12624;BME280;6377;42.836;23.998;2023-04-05T14:55:40;95318.00;;;5.53;100.00
12624;BME280;6377;42.836;23.998;2023-04-05T14:58:07;95268.38;;;5.34;100.00
12624;BME280;6377;42.836;23.998;2023-04-05T15:00:35;95207.50;;;5.15;100.00
12624;BME280;6377;42.836;23.998;2023-04-05T15:03:02;95266.81;;;5.49;100.00
12624;BME280;6377;42.836;23.998;2023-04-05T15:05:30;95325.28;;;5.68;100.00
12624;BME280;6377;42.836;23.998;2023-04-05T15:08:00;95278.00;;;5.51;100.00
12624;BME280;6377;42.836;23.998;2023-04-05T15:10:29;95301.56;;;5.77;100.00
12624;BME280;6377;42.836;23.998;2023-04-05T15:12:56;95313.22;;;5.83;100.00
12624;BME280;6377;42.836;23.998;2023-04-05T15:15:23;95248.44;;;5.41;100.00
12624;BME280;6377;42.836;23.998;2023-04-05T15:17:50;95276.75;;;5.63;100.00
12624;BME280;6377;42.836;23.998;2023-04-05T15:20:18;95322.94;;;5.90;100.00
12624;BME280;6377;42.836;23.998;2023-04-05T15:22:46;95311.31;;;5.59;100.00
12624;BME280;6377;42.836;23.998;2023-04-05T15:25:13;95292.63;;;5.28;100.00
12624;BME280;6377;42.836;23.998;2023-04-05T15:27:45;95320.72;;;5.44;100.00
12624;BME280;6377;42.836;23.998;2023-04-05T15:30:13;95296.97;;;5.20;100.00
12624;BME280;6377;42.836;23.998;2023-04-05T15:32:40;95328.06;;;5.40;100.00
12624;BME280;6377;42.836;23.998;2023-04-05T15:35:08;95288.16;;;5.21;100.00
12624;BME280;6377;42.836;23.998;2023-04-05T15:37:35;95333.00;;;5.69;100.00
12624;BME280;6377;42.836;23.998;2023-04-05T15:40:04;95328.44;;;5.79;100.00
12624;BME280;6377;42.836;23.998;2023-04-05T15:42:32;95360.91;;;6.04;100.00
12624;BME280;6377;42.836;23.998;2023-04-05T15:45:01;95327.25;;;5.65;100.00
12624;BME280;6377;42.836;23.998;2023-04-05T15:47:28;95316.09;;;5.63;100.00
12624;BME280;6377;42.836;23.998;2023-04-05T15:49:56;95377.72;;;5.85;100.00
12624;BME280;6377;42.836;23.998;2023-04-05T15:52:23;95310.53;;;5.41;100.00
12624;BME280;6377;42.836;23.998;2023-04-05T15:54:50;95332.41;;;5.24;100.00
12624;BME280;6377;42.836;23.998;2023-04-05T15:57:17;95356.25;;;5.38;100.00
12624;BME280;6377;42.836;23.998;2023-04-05T15:59:45;95335.94;;;4.89;100.00
12624;BME280;6377;42.836;23.998;2023-04-05T16:02:14;95342.06;;;4.97;100.00
12624;BME280;6377;42.836;23.998;2023-04-05T16:04:41;95333.53;;;4.95;100.00
12624;BME280;6377;42.836;23.998;2023-04-05T16:07:09;95370.91;;;5.23;100.00
12624;BME280;6377;42.836;23.998;2023-04-05T16:09:36;95333.78;;;4.84;100.00
12624;BME280;6377;42.836;23.998;2023-04-05T16:12:03;95343.22;;;5.03;100.00
12624;BME280;6377;42.836;23.998;2023-04-05T16:14:31;95333.88;;;5.00;100.00
12624;BME280;6377;42.836;23.998;2023-04-05T16:16:58;95323.72;;;4.97;100.00
12624;BME280;6377;42.836;23.998;2023-04-05T16:19:27;95387.13;;;5.44;100.00
12624;BME280;6377;42.836;23.998;2023-04-05T16:21:55;95364.59;;;4.90;100.00
12624;BME280;6377;42.836;23.998;2023-04-05T16:24:23;95377.59;;;5.00;100.00
12624;BME280;6377;42.836;23.998;2023-04-05T16:26:51;95347.09;;;4.73;100.00
12624;BME280;6377;42.836;23.998;2023-04-05T16:29:21;95379.81;;;4.87;100.00
12624;BME280;6377;42.836;23.998;2023-04-05T16:31:49;95343.03;;;4.43;100.00
12624;BME280;6377;42.836;23.998;2023-04-05T16:34:16;95364.47;;;4.57;100.00
12624;BME280;6377;42.836;23.998;2023-04-05T16:36:45;95359.75;;;4.42;100.00
12624;BME280;6377;42.836;23.998;2023-04-05T16:39:12;95324.19;;;4.22;100.00
12624;BME280;6377;42.836;23.998;2023-04-05T16:41:40;95395.66;;;4.50;100.00
12624;BME280;6377;42.836;23.998;2023-04-05T16:44:07;95364.53;;;4.47;100.00
12624;BME280;6377;42.836;23.998;2023-04-05T16:46:35;95367.53;;;4.34;100.00
12624;BME280;6377;42.836;23.998;2023-04-05T16:49:02;95368.63;;;4.32;100.00
12624;BME280;6377;42.836;23.998;2023-04-05T16:51:29;95402.75;;;4.40;100.00
12624;BME280;6377;42.836;23.998;2023-04-05T16:53:59;95392.47;;;4.29;100.00
12624;BME280;6377;42.836;23.998;2023-04-05T16:56:26;95403.09;;;4.27;100.00
12624;BME280;6377;42.836;23.998;2023-04-05T16:58:53;95394.66;;;4.06;100.00
12624;BME280;6377;42.836;23.998;2023-04-05T17:01:22;95401.09;;;4.12;100.00
12624;BME280;6377;42.836;23.998;2023-04-05T17:03:49;95407.66;;;3.98;100.00
12624;BME280;6377;42.836;23.998;2023-04-05T17:06:16;95411.03;;;4.08;100.00
12624;BME280;6377;42.836;23.998;2023-04-05T17:08:43;95374.59;;;3.70;100.00
12624;BME280;6377;42.836;23.998;2023-04-05T17:11:12;95354.38;;;3.62;100.00
12624;BME280;6377;42.836;23.998;2023-04-05T17:13:39;95396.19;;;3.81;100.00
12624;BME280;6377;42.836;23.998;2023-04-05T17:16:09;95415.44;;;3.80;100.00
12624;BME280;6377;42.836;23.998;2023-04-05T17:18:39;95263.88;;;2.88;100.00
12624;BME280;6377;42.836;23.998;2023-04-05T17:21:07;95427.44;;;3.73;100.00
12624;BME280;6377;42.836;23.998;2023-04-05T17:23:37;95391.88;;;3.44;100.00
12624;BME280;6377;42.836;23.998;2023-04-05T17:26:04;95359.63;;;3.06;100.00
12624;BME280;6377;42.836;23.998;2023-04-05T17:28:33;95380.94;;;3.21;100.00
12624;BME280;6377;42.836;23.998;2023-04-05T17:31:04;95387.53;;;3.15;100.00
12624;BME280;6377;42.836;23.998;2023-04-05T17:33:31;95411.72;;;3.27;100.00
12624;BME280;6377;42.836;23.998;2023-04-05T17:35:59;95354.31;;;2.79;100.00
12624;BME280;6377;42.836;23.998;2023-04-05T17:38:26;95436.06;;;3.37;100.00
12624;BME280;6377;42.836;23.998;2023-04-05T17:40:54;95363.13;;;2.78;100.00
12624;BME280;6377;42.836;23.998;2023-04-05T17:43:24;95398.31;;;2.93;100.00
12624;BME280;6377;42.836;23.998;2023-04-05T17:45:53;95406.25;;;2.82;100.00
12624;BME280;6377;42.836;23.998;2023-04-05T17:48:21;95272.75;;;2.10;100.00
12624;BME280;6377;42.836;23.998;2023-04-05T17:50:51;95443.38;;;3.14;100.00
12624;BME280;6377;42.836;23.998;2023-04-05T17:53:19;95394.47;;;2.78;100.00
12624;BME280;6377;42.836;23.998;2023-04-05T17:55:46;95346.09;;;2.55;100.00
12624;BME280;6377;42.836;23.998;2023-04-05T17:58:14;95349.53;;;2.55;100.00
12624;BME280;6377;42.836;23.998;2023-04-05T18:00:44;95433.75;;;3.24;100.00
12624;BME280;6377;42.836;23.998;2023-04-05T18:03:13;95443.91;;;3.37;100.00
12624;BME280;6377;42.836;23.998;2023-04-05T18:05:40;95276.03;;;2.41;100.00
12624;BME280;6377;42.836;23.998;2023-04-05T18:08:09;95486.41;;;3.49;100.00
12624;BME280;6377;42.836;23.998;2023-04-05T18:10:39;95427.28;;;3.19;100.00
12624;BME280;6377;42.836;23.998;2023-04-05T18:13:07;95432.22;;;3.31;100.00
12624;BME280;6377;42.836;23.998;2023-04-05T18:15:37;95341.41;;;2.87;100.00
12624;BME280;6377;42.836;23.998;2023-04-05T18:18:05;95231.13;;;2.37;100.00
12624;BME280;6377;42.836;23.998;2023-04-05T18:20:33;95389.44;;;3.32;100.00
12624;BME280;6377;42.836;23.998;2023-04-05T18:23:01;95413.50;;;3.46;100.00
12624;BME280;6377;42.836;23.998;2023-04-05T18:25:28;95402.91;;;3.37;100.00
12624;BME280;6377;42.836;23.998;2023-04-05T18:27:58;95351.25;;;3.03;100.00
12624;BME280;6377;42.836;23.998;2023-04-05T18:30:25;95418.28;;;3.40;100.00
12624;BME280;6377;42.836;23.998;2023-04-05T18:32:53;95456.38;;;3.62;100.00
12624;BME280;6377;42.836;23.998;2023-04-05T18:35:20;95390.31;;;3.04;100.00
12624;BME280;6377;42.836;23.998;2023-04-05T18:37:49;95453.09;;;3.51;100.00
12624;BME280;6377;42.836;23.998;2023-04-05T18:40:16;95443.75;;;3.29;100.00
12624;BME280;6377;42.836;23.998;2023-04-05T18:42:45;95462.88;;;3.49;100.00
12624;BME280;6377;42.836;23.998;2023-04-05T18:45:12;95422.34;;;3.16;100.00
12624;BME280;6377;42.836;23.998;2023-04-05T18:47:39;95419.72;;;3.06;100.00
12624;BME280;6377;42.836;23.998;2023-04-05T18:50:08;95461.94;;;3.11;100.00
12624;BME280;6377;42.836;23.998;2023-04-05T18:52:35;95394.19;;;2.52;100.00
12624;BME280;6377;42.836;23.998;2023-04-05T18:55:22;95466.31;;;2.82;100.00
12624;BME280;6377;42.836;23.998;2023-04-05T18:57:49;95462.19;;;2.79;100.00
12624;BME280;6377;42.836;23.998;2023-04-05T19:00:17;95418.44;;;2.24;100.00
12624;BME280;6377;42.836;23.998;2023-04-05T19:02:45;95314.09;;;1.55;100.00
12624;BME280;6377;42.836;23.998;2023-04-05T19:05:12;95488.56;;;2.57;100.00
12624;BME280;6377;42.836;23.998;2023-04-05T19:07:39;95451.66;;;2.22;100.00
12624;BME280;6377;42.836;23.998;2023-04-05T19:10:08;95435.22;;;2.31;100.00
12624;BME280;6377;42.836;23.998;2023-04-05T19:12:37;95437.25;;;2.28;100.00
12624;BME280;6377;42.836;23.998;2023-04-05T19:15:05;95472.75;;;2.49;100.00
12624;BME280;6377;42.836;23.998;2023-04-05T19:17:34;95423.19;;;2.09;100.00
12624;BME280;6377;42.836;23.998;2023-04-05T19:20:02;95479.56;;;2.31;100.00
12624;BME280;6377;42.836;23.998;2023-04-05T19:22:31;95492.25;;;2.45;100.00
12624;BME280;6377;42.836;23.998;2023-04-05T19:24:59;95394.63;;;1.98;100.00
12624;BME280;6377;42.836;23.998;2023-04-05T19:27:28;95419.69;;;2.20;100.00
12624;BME280;6377;42.836;23.998;2023-04-05T19:29:59;95449.63;;;2.35;100.00
12624;BME280;6377;42.836;23.998;2023-04-05T19:32:26;95450.59;;;2.44;100.00
12624;BME280;6377;42.836;23.998;2023-04-05T19:34:57;95334.84;;;1.66;100.00
12624;BME280;6377;42.836;23.998;2023-04-05T19:37:28;95375.56;;;2.07;100.00
12624;BME280;6377;42.836;23.998;2023-04-05T19:39:55;95384.50;;;2.24;100.00
12624;BME280;6377;42.836;23.998;2023-04-05T19:42:23;95395.34;;;2.29;100.00
12624;BME280;6377;42.836;23.998;2023-04-05T19:44:51;95299.31;;;1.75;100.00
12624;BME280;6377;42.836;23.998;2023-04-05T19:47:21;95366.66;;;2.19;100.00
12624;BME280;6377;42.836;23.998;2023-04-05T19:49:49;95469.50;;;2.95;100.00
12624;BME280;6377;42.836;23.998;2023-04-05T19:52:35;95467.44;;;2.99;100.00
12624;BME280;6377;42.836;23.998;2023-04-05T19:57:50;95428.53;;;2.76;100.00
12624;BME280;6377;42.836;23.998;2023-04-05T20:00:30;95467.16;;;3.11;100.00
12624;BME280;6377;42.836;23.998;2023-04-05T20:03:02;95474.19;;;3.11;100.00
12624;BME280;6377;42.836;23.998;2023-04-05T20:06:02;95459.59;;;3.08;100.00
12624;BME280;6377;42.836;23.998;2023-04-05T20:08:34;95449.84;;;2.91;100.00
12624;BME280;6377;42.836;23.998;2023-04-05T20:11:15;95461.38;;;2.60;100.00
12624;BME280;6377;42.836;23.998;2023-04-05T20:13:51;95439.88;;;2.28;100.00
